createdAt,value
2023-02-20T00:00:22.490Z,9.20
2023-02-20T00:02:55.745Z,9.20
2023-02-20T00:05:26.403Z,9.10
2023-02-20T00:07:57.221Z,9.10
2023-02-20T00:10:25.931Z,9.10
2023-02-20T00:12:56.084Z,9.00
2023-02-20T00:15:30.548Z,9.00
2023-02-20T00:17:59.124Z,9.00
2023-02-20T00:20:29.452Z,8.90
2023-02-20T00:22:59.254Z,8.90
2023-02-20T00:26:17.628Z,8.90
2023-02-20T00:28:45.874Z,8.80
2023-02-20T00:31:20.521Z,8.80
2023-02-20T00:33:48.948Z,8.70
2023-02-20T00:36:24.713Z,8.70
2023-02-20T00:38:58.010Z,8.60
2023-02-20T00:41:25.400Z,8.60
2023-02-20T00:44:16.043Z,8.50
2023-02-20T00:46:45.632Z,8.50
2023-02-20T00:49:17.071Z,8.50
2023-02-20T00:51:49.896Z,8.50
2023-02-20T00:54:20.754Z,8.40
2023-02-20T00:56:47.774Z,8.40
2023-02-20T00:59:39.939Z,8.30
2023-02-20T01:02:32.472Z,8.30
2023-02-20T01:05:03.528Z,8.30
2023-02-20T01:07:34.434Z,8.30
2023-02-20T01:10:04.637Z,8.20
2023-02-20T01:12:51.846Z,8.20
2023-02-20T01:15:19.701Z,8.20
2023-02-20T01:17:48.023Z,8.10
2023-02-20T01:20:16.072Z,8.10
2023-02-20T01:22:51.493Z,8.10
2023-02-20T01:25:18.131Z,8.10
2023-02-20T01:27:56.441Z,8.10
2023-02-20T01:30:33.845Z,8.20
2023-02-20T01:35:56.808Z,8.10
2023-02-20T01:38:25.301Z,8.10
2023-02-20T01:41:19.481Z,8.10
2023-02-20T01:43:48.125Z,8.10
2023-02-20T01:46:31.774Z,8.00
2023-02-20T01:49:09.203Z,8.00
2023-02-20T01:52:12.288Z,7.90
2023-02-20T01:55:12.596Z,7.90
2023-02-20T01:57:57.731Z,7.80
2023-02-20T02:00:32.059Z,7.80
2023-02-20T02:03:21.620Z,7.80
2023-02-20T02:05:54.698Z,7.80
2023-02-20T02:08:25.533Z,7.80
2023-02-20T02:11:04.674Z,7.70
2023-02-20T02:13:49.084Z,7.70
2023-02-20T02:16:48.977Z,7.60
2023-02-20T02:19:24.087Z,7.60
2023-02-20T02:22:04.387Z,7.60
2023-02-20T02:25:40.301Z,7.60
2023-02-20T02:28:32.792Z,7.50
2023-02-20T02:31:37.937Z,7.50
2023-02-20T02:34:31.609Z,7.50
2023-02-20T02:37:20.065Z,7.50
2023-02-20T02:40:19.904Z,7.40
2023-02-20T02:43:26.933Z,7.40
2023-02-20T02:46:03.481Z,7.40
2023-02-20T02:48:39.361Z,7.50
2023-02-20T02:51:21.707Z,7.50
2023-02-20T02:54:27.869Z,7.50
2023-02-20T02:57:27.631Z,7.50
2023-02-20T03:00:17.231Z,7.50
2023-02-20T03:02:59.689Z,7.50
2023-02-20T03:05:54.285Z,7.50
2023-02-20T03:08:56.694Z,7.40
2023-02-20T03:11:27.748Z,7.40
2023-02-20T03:14:25.107Z,7.40
2023-02-20T03:20:05.634Z,7.40
2023-02-20T03:22:44.631Z,7.40
2023-02-20T03:25:21.220Z,7.40
2023-02-20T03:28:02.826Z,7.40
2023-02-20T03:30:36.583Z,7.50
2023-02-20T03:33:39.306Z,7.50
2023-02-20T03:40:08.307Z,7.50
2023-02-20T03:43:23.893Z,7.50
2023-02-20T03:46:14.942Z,7.60
2023-02-20T03:48:53.316Z,7.60
2023-02-20T03:51:21.181Z,7.70
2023-02-20T03:54:01.086Z,7.70
2023-02-20T03:56:43.745Z,7.70
2023-02-20T03:59:23.105Z,7.70
2023-02-20T04:01:55.415Z,7.70
2023-02-20T04:04:27.612Z,7.70
2023-02-20T04:06:56.694Z,7.70
2023-02-20T04:09:31.645Z,7.70
2023-02-20T04:12:24.751Z,7.70
2023-02-20T04:14:55.940Z,7.70
2023-02-20T04:17:31.177Z,7.80
2023-02-20T04:20:03.123Z,7.70
2023-02-20T04:22:38.191Z,7.80
2023-02-20T04:25:20.553Z,7.70
2023-02-20T04:27:48.070Z,7.80
2023-02-20T04:30:18.759Z,7.70
2023-02-20T04:32:46.700Z,7.70
2023-02-20T04:35:17.621Z,7.60
2023-02-20T04:37:45.474Z,7.50
2023-02-20T04:40:14.569Z,7.50
2023-02-20T04:42:41.827Z,7.60
2023-02-20T04:45:08.941Z,7.60
2023-02-20T04:47:40.522Z,7.60
2023-02-20T04:50:10.794Z,7.60
2023-02-20T04:52:40.989Z,7.50
2023-02-20T04:55:10.208Z,7.60
2023-02-20T04:57:37.966Z,7.60
2023-02-20T05:00:09.838Z,7.60
2023-02-20T05:02:40.411Z,7.60
2023-02-20T05:05:34.873Z,7.50
2023-02-20T05:08:04.652Z,7.50
2023-02-20T05:10:32.945Z,7.40
2023-02-20T05:12:59.946Z,7.40
2023-02-20T05:15:30.956Z,7.40
2023-02-20T05:17:57.686Z,7.30
2023-02-20T05:20:44.451Z,7.30
2023-02-20T05:26:11.738Z,7.30
2023-02-20T05:28:41.648Z,7.20
2023-02-20T05:31:08.641Z,7.20
2023-02-20T05:33:42.023Z,7.20
2023-02-20T05:36:10.008Z,7.20
2023-02-20T05:38:40.827Z,7.10
2023-02-20T05:41:09.806Z,7.10
2023-02-20T05:43:38.503Z,7.10
2023-02-20T05:46:05.958Z,7.00
2023-02-20T05:48:58.062Z,7.00
2023-02-20T05:51:28.938Z,7.00
2023-02-20T05:53:55.982Z,6.90
2023-02-20T06:02:17.061Z,6.80
2023-02-20T06:04:43.944Z,6.80
2023-02-20T06:07:20.907Z,6.80
2023-02-20T06:09:49.013Z,6.80
2023-02-20T06:12:20.924Z,6.70
2023-02-20T06:14:47.777Z,6.70
2023-02-20T06:17:18.724Z,6.70
2023-02-20T06:19:46.764Z,6.70
2023-02-20T06:22:18.398Z,6.60
2023-02-20T06:28:36.877Z,6.50
2023-02-20T06:31:05.785Z,6.50
2023-02-20T06:33:33.444Z,6.50
2023-02-20T06:36:19.826Z,6.50
2023-02-20T06:38:51.469Z,6.50
2023-02-20T06:41:47.848Z,6.40
2023-02-20T06:44:16.794Z,6.40
2023-02-20T06:46:53.275Z,6.40
2023-02-20T06:49:20.240Z,6.40
2023-02-20T06:51:47.977Z,6.40
2023-02-20T06:54:21.206Z,6.40
2023-02-20T06:56:51.872Z,6.40
2023-02-20T06:59:18.656Z,6.50
2023-02-20T07:01:47.020Z,6.40
2023-02-20T07:04:23.021Z,6.50
2023-02-20T07:06:49.846Z,6.50
2023-02-20T07:09:17.088Z,6.50
2023-02-20T07:11:49.916Z,6.50
2023-02-20T07:14:17.424Z,6.50
2023-02-20T07:16:44.091Z,6.60
2023-02-20T07:19:21.117Z,6.50
2023-02-20T07:21:54.103Z,6.60
2023-02-20T07:24:23.017Z,6.60
2023-02-20T07:26:49.747Z,6.60
2023-02-20T07:29:16.650Z,6.60
2023-02-20T07:31:52.905Z,6.60
2023-02-20T07:34:20.093Z,6.70
2023-02-20T07:36:46.844Z,6.70
2023-02-20T07:39:13.600Z,6.70
2023-02-20T07:44:48.905Z,6.80
2023-02-20T07:47:15.632Z,6.90
2023-02-20T07:49:51.062Z,7.00
2023-02-20T07:52:17.801Z,7.00
2023-02-20T07:54:49.537Z,7.10
2023-02-20T07:57:24.667Z,7.20
2023-02-20T07:59:53.761Z,7.30
2023-02-20T08:02:24.085Z,7.50
2023-02-20T08:04:50.816Z,7.60
2023-02-20T08:07:18.685Z,7.70
2023-02-20T08:09:48.832Z,7.80
2023-02-20T08:12:40.245Z,7.90
2023-02-20T08:15:09.744Z,8.10
2023-02-20T08:17:46.464Z,8.20
2023-02-20T08:20:52.131Z,8.20
2023-02-20T08:23:21.957Z,8.40
2023-02-20T08:25:59.392Z,8.50
2023-02-20T08:28:30.563Z,8.70
2023-02-20T08:31:03.246Z,8.80
2023-02-20T08:33:29.890Z,8.90
2023-02-20T08:38:50.411Z,9.20
2023-02-20T08:41:45.911Z,9.30
2023-02-20T08:44:13.328Z,9.50
2023-02-20T08:55:44.141Z,10.00
2023-02-20T09:01:04.189Z,10.30
2023-02-20T09:03:33.516Z,10.60
2023-02-20T09:06:01.231Z,10.80
2023-02-20T09:08:33.226Z,11.00
2023-02-20T09:11:09.102Z,11.10
2023-02-20T09:13:50.215Z,11.20
2023-02-20T09:16:23.255Z,11.40
2023-02-20T09:21:31.832Z,11.40
2023-02-20T09:23:58.797Z,11.20
2023-02-20T09:26:29.878Z,11.10
2023-02-20T09:28:59.074Z,10.90
2023-02-20T09:31:50.685Z,10.80
2023-02-20T09:34:24.609Z,10.70
2023-02-20T09:36:55.632Z,10.60
2023-02-20T09:39:29.369Z,10.60
2023-02-20T09:42:17.171Z,10.60
2023-02-20T09:45:05.414Z,10.80
2023-02-20T09:48:10.260Z,11.00
2023-02-20T09:50:52.852Z,11.30
2023-02-20T09:53:22.481Z,11.60
2023-02-20T09:55:50.258Z,11.70
2023-02-20T09:58:44.261Z,11.90
2023-02-20T10:01:19.237Z,12.00
2023-02-20T10:04:10.518Z,12.10
2023-02-20T10:06:48.554Z,12.30
2023-02-20T10:09:15.858Z,12.40
2023-02-20T10:11:45.931Z,12.60
2023-02-20T10:14:25.304Z,12.60
2023-02-20T10:16:58.013Z,12.60
2023-02-20T10:19:52.347Z,12.70
2023-02-20T10:22:58.296Z,12.60
2023-02-20T10:25:40.325Z,12.70
2023-02-20T10:28:17.900Z,12.90
2023-02-20T10:30:48.607Z,13.00
2023-02-20T10:33:32.900Z,13.20
2023-02-20T10:36:24.198Z,13.30
2023-02-20T10:38:58.345Z,13.30
2023-02-20T10:41:50.485Z,13.50
2023-02-20T10:44:51.903Z,13.40
2023-02-20T10:47:47.869Z,13.40
2023-02-20T10:50:30.588Z,13.40
2023-02-20T10:53:07.388Z,13.40
2023-02-20T10:56:08.437Z,13.40
2023-02-20T10:59:41.962Z,13.80
2023-02-20T11:02:28.501Z,13.90
2023-02-20T11:08:01.602Z,13.90
2023-02-20T11:10:34.613Z,13.90
2023-02-20T11:13:03.077Z,13.90
2023-02-20T11:15:32.835Z,13.70
2023-02-20T11:18:19.382Z,13.90
2023-02-20T11:20:48.521Z,14.00
2023-02-20T11:23:41.932Z,14.20
2023-02-20T11:26:30.757Z,14.50
2023-02-20T11:31:49.163Z,14.90
2023-02-20T11:40:05.005Z,14.50
2023-02-20T11:42:34.090Z,14.40
2023-02-20T11:45:24.423Z,14.50
2023-02-20T11:48:23.588Z,14.60
2023-02-20T11:50:53.574Z,14.60
2023-02-20T11:53:32.091Z,14.90
2023-02-20T11:59:07.455Z,15.00
2023-02-20T12:01:41.902Z,14.90
2023-02-20T12:12:44.864Z,15.60
2023-02-20T12:15:17.050Z,15.70
2023-02-20T12:18:03.707Z,15.60
2023-02-20T12:20:31.486Z,15.40
2023-02-20T12:23:17.508Z,15.40
2023-02-20T12:25:58.748Z,15.20
2023-02-20T12:31:25.810Z,15.40
2023-02-20T12:34:04.669Z,15.40
2023-02-20T12:36:49.943Z,15.50
2023-02-20T12:39:34.551Z,15.50
2023-02-20T12:42:49.803Z,15.50
2023-02-20T12:45:24.851Z,15.60
2023-02-20T12:48:20.634Z,15.70
2023-02-20T12:51:11.183Z,16.10
2023-02-20T12:54:04.454Z,15.90
2023-02-20T12:56:48.615Z,16.10
2023-02-20T12:59:30.584Z,16.30
2023-02-20T13:02:35.764Z,16.60
2023-02-20T13:05:12.715Z,16.60
2023-02-20T13:07:55.845Z,16.60
2023-02-20T13:10:32.093Z,16.70
2023-02-20T13:13:09.970Z,16.60
2023-02-20T13:16:05.863Z,16.90
2023-02-20T13:18:35.063Z,17.00
2023-02-20T13:21:10.712Z,17.20
2023-02-20T13:23:41.822Z,17.10
2023-02-20T13:26:40.582Z,17.20
2023-02-20T13:29:12.510Z,17.50
2023-02-20T13:31:45.208Z,17.20
2023-02-20T13:34:14.646Z,17.50
2023-02-20T13:36:50.275Z,17.80
2023-02-20T13:39:21.603Z,18.10
2023-02-20T13:41:54.683Z,18.30
2023-02-20T13:44:27.618Z,18.30
2023-02-20T13:46:58.350Z,17.90
2023-02-20T13:49:44.313Z,17.90
2023-02-20T13:52:35.844Z,17.30
2023-02-20T13:55:23.542Z,16.70
2023-02-20T13:58:12.595Z,16.80
2023-02-20T14:00:50.616Z,17.10
2023-02-20T14:03:28.094Z,17.30
2023-02-20T14:18:32.809Z,16.90
2023-02-20T14:21:19.161Z,16.80
2023-02-20T14:23:50.067Z,16.70
2023-02-20T14:26:27.492Z,16.30
2023-02-20T14:29:27.387Z,16.30
2023-02-20T14:31:58.162Z,16.30
2023-02-20T14:34:33.046Z,16.40
2023-02-20T14:37:26.397Z,16.40
2023-02-20T14:40:07.445Z,16.50
2023-02-20T14:42:40.877Z,16.50
2023-02-20T14:45:14.482Z,16.50
2023-02-20T14:47:45.878Z,16.30
2023-02-20T14:50:26.719Z,16.20
2023-02-20T14:53:13.497Z,16.40
2023-02-20T14:55:40.988Z,16.60
2023-02-20T14:58:22.582Z,16.80
2023-02-20T15:00:49.683Z,16.70
2023-02-20T15:03:30.575Z,16.80
2023-02-20T15:06:12.316Z,16.70
2023-02-20T15:08:42.831Z,16.50
2023-02-20T15:11:12.734Z,16.60
2023-02-20T15:13:42.372Z,16.50
2023-02-20T15:16:25.872Z,16.30
2023-02-20T15:18:55.971Z,16.10
2023-02-20T15:21:56.311Z,15.80
2023-02-20T15:24:29.768Z,15.60
2023-02-20T15:27:27.731Z,15.60
2023-02-20T15:30:40.369Z,15.70
2023-02-20T15:33:09.490Z,15.70
2023-02-20T15:35:36.445Z,15.60
2023-02-20T15:38:06.981Z,15.50
2023-02-20T15:40:34.382Z,15.40
2023-02-20T15:43:13.240Z,15.40
2023-02-20T15:45:57.305Z,15.40
2023-02-20T15:48:23.935Z,15.40
2023-02-20T15:51:00.943Z,15.30
2023-02-20T15:53:32.514Z,15.20
2023-02-20T15:56:01.186Z,15.20
2023-02-20T15:58:35.694Z,15.20
2023-02-20T16:01:27.675Z,15.10
2023-02-20T16:03:57.218Z,15.00
2023-02-20T16:06:26.882Z,14.90
2023-02-20T16:09:25.506Z,14.80
2023-02-20T16:11:52.213Z,14.60
2023-02-20T16:14:29.173Z,14.50
2023-02-20T16:16:58.580Z,14.40
2023-02-20T16:19:41.848Z,14.30
2023-02-20T16:22:28.021Z,14.20
2023-02-20T16:25:02.081Z,14.10
2023-02-20T16:27:31.975Z,14.00
2023-02-20T16:29:59.752Z,13.90
2023-02-20T16:32:30.042Z,13.80
2023-02-20T16:35:00.785Z,13.70
2023-02-20T16:40:30.962Z,13.50
2023-02-20T16:46:38.642Z,13.40
2023-02-20T16:49:06.164Z,13.30
2023-02-20T16:51:32.913Z,13.30
2023-02-20T16:54:05.004Z,13.20
2023-02-20T16:56:34.198Z,13.10
2023-02-20T16:59:03.882Z,13.10
2023-02-20T17:01:32.368Z,13.00
2023-02-20T17:03:59.147Z,12.90
2023-02-20T17:06:30.593Z,12.80
2023-02-20T17:08:57.427Z,12.80
2023-02-20T17:11:24.413Z,12.80
2023-02-20T17:13:56.925Z,12.80
2023-02-20T17:16:32.211Z,12.60
2023-02-20T17:19:05.164Z,12.60
2023-02-20T17:21:38.009Z,12.60
2023-02-20T17:24:07.771Z,12.50
2023-02-20T17:26:37.388Z,12.50
2023-02-20T17:29:06.030Z,12.40
2023-02-20T17:31:39.883Z,12.40
2023-02-20T17:34:07.044Z,12.40
2023-02-20T17:36:58.818Z,12.30
2023-02-20T17:39:35.103Z,12.30
2023-02-20T17:42:02.306Z,12.20
2023-02-20T17:44:31.041Z,12.20
2023-02-20T17:47:04.023Z,12.10
2023-02-20T17:49:34.994Z,12.10
2023-02-20T17:52:01.673Z,12.00
2023-02-20T17:54:34.912Z,12.00
2023-02-20T17:57:06.387Z,11.90
2023-02-20T17:59:39.447Z,11.90
2023-02-20T18:02:07.752Z,11.80
2023-02-20T18:04:37.972Z,11.80
2023-02-20T18:07:05.980Z,11.70
2023-02-20T18:09:32.874Z,11.70
2023-02-20T18:14:59.973Z,11.70
2023-02-20T18:17:28.227Z,11.70
2023-02-20T18:19:55.145Z,11.70
2023-02-20T18:22:28.039Z,11.70
2023-02-20T18:24:55.607Z,11.70
2023-02-20T18:27:24.494Z,11.70
2023-02-20T18:29:55.869Z,11.70
2023-02-20T18:32:22.688Z,11.70
2023-02-20T18:35:04.455Z,11.60
2023-02-20T18:37:32.741Z,11.60
2023-02-20T18:40:00.228Z,11.50
2023-02-20T18:45:28.756Z,11.40
2023-02-20T18:48:00.207Z,11.40
2023-02-20T18:50:27.141Z,11.30
2023-02-20T18:52:54.181Z,11.30
2023-02-20T18:55:23.557Z,11.20
2023-02-20T18:57:51.183Z,11.20
2023-02-20T19:00:23.756Z,11.10
2023-02-20T19:03:19.055Z,11.10
2023-02-20T19:05:45.639Z,11.10
2023-02-20T19:08:12.286Z,11.00
2023-02-20T19:10:42.180Z,11.00
2023-02-20T19:13:12.267Z,10.90
2023-02-20T19:15:39.009Z,10.90
2023-02-20T19:18:06.624Z,10.80
2023-02-20T19:20:37.092Z,10.80
2023-02-20T19:23:10.164Z,10.70
2023-02-20T19:25:37.480Z,10.70
2023-02-20T19:28:13.988Z,10.60
2023-02-20T19:30:45.507Z,10.60
2023-02-20T19:33:12.312Z,10.60
2023-02-20T19:35:40.251Z,10.50
2023-02-20T19:38:10.769Z,10.40
2023-02-20T19:40:37.460Z,10.40
2023-02-20T19:45:54.341Z,10.30
2023-02-20T19:48:23.442Z,10.20
2023-02-20T19:51:15.467Z,10.20
2023-02-20T19:53:47.451Z,10.10
2023-02-20T19:56:14.622Z,10.00
2023-02-20T19:58:41.651Z,9.90
2023-02-20T20:01:18.340Z,9.80
2023-02-20T20:03:47.184Z,9.80
2023-02-20T20:06:57.662Z,9.70
2023-02-20T20:12:49.135Z,9.40
2023-02-20T20:15:18.640Z,9.40
2023-02-20T20:17:47.109Z,9.30
2023-02-20T20:20:18.586Z,9.20
2023-02-20T20:23:10.181Z,9.20
2023-02-20T20:25:37.724Z,9.10
2023-02-20T20:28:08.757Z,8.90
2023-02-20T20:30:41.820Z,8.90
2023-02-20T20:33:13.166Z,8.80
2023-02-20T20:36:06.770Z,8.70
2023-02-20T20:39:02.885Z,8.60
2023-02-20T20:41:44.427Z,8.60
2023-02-20T20:44:13.313Z,8.50
2023-02-20T20:46:44.623Z,8.50
2023-02-20T20:49:15.338Z,8.50
2023-02-20T20:51:46.941Z,8.40
2023-02-20T20:54:16.165Z,8.30
2023-02-20T20:56:50.213Z,8.30
2023-02-20T20:59:21.429Z,8.20
2023-02-20T21:01:51.365Z,8.20
2023-02-20T21:04:18.245Z,8.10
2023-02-20T21:06:45.988Z,8.10
2023-02-20T21:09:12.978Z,8.10
2023-02-20T21:11:44.423Z,8.10
2023-02-20T21:14:11.423Z,8.10
2023-02-20T21:16:43.385Z,8.00
2023-02-20T21:19:10.106Z,8.00
2023-02-20T21:21:44.607Z,8.00
2023-02-20T21:24:11.398Z,7.90
2023-02-20T21:26:39.293Z,7.90
2023-02-20T21:29:07.095Z,7.90
2023-02-20T21:31:51.207Z,7.80
2023-02-20T21:34:19.014Z,7.80
2023-02-20T21:36:48.073Z,7.80
2023-02-20T21:39:14.965Z,7.80
2023-02-20T21:42:02.569Z,7.70
2023-02-20T21:44:31.285Z,7.70
2023-02-20T21:47:05.856Z,7.70
2023-02-20T21:49:37.313Z,7.60
2023-02-20T21:52:04.987Z,7.50
2023-02-20T21:54:34.887Z,7.50
2023-02-20T21:57:03.258Z,7.40
2023-02-20T21:59:30.820Z,7.30
2023-02-20T22:01:57.993Z,7.30
2023-02-20T22:04:25.358Z,7.20
2023-02-20T22:07:11.032Z,7.20
2023-02-20T22:09:57.097Z,7.20
2023-02-20T22:12:42.242Z,7.10
2023-02-20T22:15:30.692Z,7.00
2023-02-20T22:18:16.273Z,7.00
2023-02-20T22:21:01.511Z,6.90
2023-02-20T22:23:47.057Z,6.90
2023-02-20T22:26:36.186Z,6.80
2023-02-20T22:29:23.888Z,6.70
2023-02-20T22:32:09.443Z,6.70
2023-02-20T22:35:11.070Z,6.60
2023-02-20T22:38:03.343Z,6.50
2023-02-20T22:40:49.915Z,6.40
2023-02-20T22:43:36.504Z,6.20
2023-02-20T22:46:53.690Z,6.10
2023-02-20T22:49:41.857Z,6.00
2023-02-20T22:52:31.649Z,5.80
2023-02-20T22:55:16.935Z,5.70
2023-02-20T23:00:53.665Z,5.50
2023-02-20T23:06:47.211Z,5.40
2023-02-20T23:09:36.496Z,5.40
2023-02-20T23:12:23.119Z,5.30
2023-02-20T23:15:11.884Z,5.30
2023-02-20T23:18:02.465Z,5.30
2023-02-20T23:20:49.163Z,5.20
2023-02-20T23:23:34.618Z,5.20
2023-02-20T23:26:23.434Z,5.10
2023-02-20T23:29:08.930Z,5.20
2023-02-20T23:31:55.992Z,5.20
2023-02-20T23:37:46.744Z,5.10
2023-02-20T23:40:36.698Z,5.20
2023-02-20T23:43:27.094Z,5.20
2023-02-20T23:46:17.442Z,5.20
2023-02-20T23:49:05.306Z,5.20
2023-02-20T23:51:57.640Z,5.20
2023-02-20T23:55:14.693Z,5.30
